This is the latest recevied weather packets stored in our database for station/object K3SV. If no packets are shown the sender has not sent any weather packets the latest 10 day(s).
| Time | Temp. | Humidity | Pressure | Rain* | Wind** | Luminosity | Snow |
|---|---|---|---|---|---|---|---|
| 1777920650 | 27.78° C | 39% | 1015.7 hPa | 0 mm | - | 549 W/m² | - |
| 1777920345 | 28.33° C | 38% | 1015.7 hPa | 0 mm | - | 296 W/m² | - |
| 1777920040 | 28.33° C | 38% | 1015.7 hPa | 0 mm | - | 609 W/m² | - |
| 1777919738 | 27.78° C | 40% | 1016 hPa | 0 mm | - | 704 W/m² | - |
| 1777919436 | 28.33° C | 38% | 1016.1 hPa | 0 mm | - | 430 W/m² | - |
| 1777919132 | 28.33° C | 38% | 1016.4 hPa | 0 mm | - | 443 W/m² | - |
| 1777918830 | 27.78° C | 40% | 1016.2 hPa | 0 mm | - | 763 W/m² | - |
| 1777918527 | 27.78° C | 40% | 1016 hPa | 0 mm | - | 767 W/m² | - |
| 1777918225 | 27.22° C | 41% | 1016.3 hPa | 0 mm | - | 750 W/m² | - |
| 1777917924 | 27.22° C | 39% | 1016.4 hPa | 0 mm | - | 637 W/m² | - |
| 1777917622 | 27.22° C | 41% | 1016.4 hPa | 0 mm | - | 716 W/m² | - |
| 1777917319 | 28.89° C | 38% | 1016.3 hPa | 0 mm | - | 539 W/m² | - |
| 1777917016 | 27.78° C | 40% | 1016.2 hPa | 0 mm | - | 657 W/m² | - |
| 1777916714 | 27.78° C | 41% | 1016.2 hPa | 0 mm | - | 472 W/m² | - |
| 1777916411 | 27.22° C | 41% | 1016.4 hPa | 0 mm | - | 480 W/m² | - |
| 1777916107 | 27.22° C | 41% | 1016.5 hPa | 0 mm | - | 683 W/m² | - |
| 1777915805 | 26.67° C | 42% | 1016.6 hPa | 0 mm | - | 805 W/m² | - |
| 1777915500 | 27.22° C | 42% | 1016.2 hPa | 0 mm | - | 785 W/m² | - |
| 1777915197 | 27.22° C | 42% | 1016.8 hPa | 0 mm | - | 774 W/m² | - |
| 1777914894 | 26.67° C | 43% | 1016.6 hPa | 0 mm | - | 805 W/m² | - |
| 1777914591 | 27.22° C | 44% | 1016.7 hPa | 0 mm | - | 437 W/m² | - |
| 1777914287 | 26.67° C | 46% | 1016.8 hPa | 0 mm | - | 793 W/m² | - |
| 1777913984 | 26.67° C | 45% | 1016.6 hPa | 0 mm | - | 262 W/m² | - |
| 1777913680 | 26.67° C | 45% | 1016.8 hPa | 0 mm | - | 602 W/m² | - |
| 1777913378 | 27.22° C | 46% | 1016.8 hPa | 0 mm | - | 504 W/m² | - |
* Rain latest hour (hover to see other rain measurements)
** Current wind speed in m/s (hover to see current wind gust speed)